sensor_id;sensor_type;location;lat;lon;timestamp;temperature;humidity
52495;DHT22;38405;53.212;5.660;2023-04-16T00:00:24;8.10;99.90
52495;DHT22;38405;53.212;5.660;2023-04-16T00:02:50;8.20;99.90
52495;DHT22;38405;53.212;5.660;2023-04-16T00:05:15;8.10;99.90
52495;DHT22;38405;53.212;5.660;2023-04-16T00:07:41;8.20;99.90
52495;DHT22;38405;53.212;5.660;2023-04-16T00:10:07;8.20;99.90
52495;DHT22;38405;53.212;5.660;2023-04-16T00:12:32;8.20;99.90
52495;DHT22;38405;53.212;5.660;2023-04-16T00:15:01;8.20;99.90
52495;DHT22;38405;53.212;5.660;2023-04-16T00:17:27;8.20;99.90
52495;DHT22;38405;53.212;5.660;2023-04-16T00:19:52;8.20;99.90
52495;DHT22;38405;53.212;5.660;2023-04-16T00:22:18;8.20;99.90
52495;DHT22;38405;53.212;5.660;2023-04-16T00:24:43;8.20;99.90
52495;DHT22;38405;53.212;5.660;2023-04-16T00:27:09;8.20;99.90
52495;DHT22;38405;53.212;5.660;2023-04-16T00:29:35;8.20;99.90
52495;DHT22;38405;53.212;5.660;2023-04-16T00:32:00;8.20;99.90
52495;DHT22;38405;53.212;5.660;2023-04-16T00:34:26;8.20;99.90
52495;DHT22;38405;53.212;5.660;2023-04-16T00:36:51;8.20;99.90
52495;DHT22;38405;53.212;5.660;2023-04-16T00:39:17;8.20;99.90
52495;DHT22;38405;53.212;5.660;2023-04-16T00:41:43;8.20;99.90
52495;DHT22;38405;53.212;5.660;2023-04-16T00:44:09;8.20;99.90
52495;DHT22;38405;53.212;5.660;2023-04-16T00:46:35;8.20;99.90
52495;DHT22;38405;53.212;5.660;2023-04-16T00:49:02;8.20;99.90
52495;DHT22;38405;53.212;5.660;2023-04-16T00:51:28;8.20;99.90
52495;DHT22;38405;53.212;5.660;2023-04-16T00:53:56;8.20;99.90
52495;DHT22;38405;53.212;5.660;2023-04-16T00:56:23;8.30;99.90
52495;DHT22;38405;53.212;5.660;2023-04-16T00:58:49;8.30;99.90
52495;DHT22;38405;53.212;5.660;2023-04-16T01:01:15;8.30;99.90
52495;DHT22;38405;53.212;5.660;2023-04-16T01:03:47;8.30;99.90
52495;DHT22;38405;53.212;5.660;2023-04-16T01:06:17;8.30;99.90
52495;DHT22;38405;53.212;5.660;2023-04-16T01:08:43;8.30;99.90
52495;DHT22;38405;53.212;5.660;2023-04-16T01:11:09;8.20;99.90
52495;DHT22;38405;53.212;5.660;2023-04-16T01:13:35;8.30;99.90
52495;DHT22;38405;53.212;5.660;2023-04-16T01:16:09;8.30;99.90
52495;DHT22;38405;53.212;5.660;2023-04-16T01:18:35;8.40;99.90
52495;DHT22;38405;53.212;5.660;2023-04-16T01:21:02;8.30;99.90
52495;DHT22;38405;53.212;5.660;2023-04-16T01:23:28;8.30;99.90
52495;DHT22;38405;53.212;5.660;2023-04-16T01:25:53;8.30;99.90
52495;DHT22;38405;53.212;5.660;2023-04-16T01:28:22;8.30;99.90
52495;DHT22;38405;53.212;5.660;2023-04-16T01:30:48;8.30;99.90
52495;DHT22;38405;53.212;5.660;2023-04-16T01:33:14;8.30;99.90
52495;DHT22;38405;53.212;5.660;2023-04-16T01:35:40;8.20;99.90
52495;DHT22;38405;53.212;5.660;2023-04-16T01:38:07;8.20;99.90
52495;DHT22;38405;53.212;5.660;2023-04-16T01:40:34;8.30;99.90
52495;DHT22;38405;53.212;5.660;2023-04-16T01:43:00;8.20;99.90
52495;DHT22;38405;53.212;5.660;2023-04-16T01:45:25;8.20;99.90
52495;DHT22;38405;53.212;5.660;2023-04-16T01:47:52;8.20;99.90
52495;DHT22;38405;53.212;5.660;2023-04-16T01:50:19;8.20;99.90
52495;DHT22;38405;53.212;5.660;2023-04-16T01:52:44;8.20;99.90
52495;DHT22;38405;53.212;5.660;2023-04-16T01:55:10;8.20;99.90
52495;DHT22;38405;53.212;5.660;2023-04-16T01:57:36;8.20;99.90
52495;DHT22;38405;53.212;5.660;2023-04-16T02:00:02;8.20;99.90
52495;DHT22;38405;53.212;5.660;2023-04-16T02:02:28;8.20;99.90
52495;DHT22;38405;53.212;5.660;2023-04-16T02:04:55;8.20;99.90
52495;DHT22;38405;53.212;5.660;2023-04-16T02:07:24;8.20;99.90
52495;DHT22;38405;53.212;5.660;2023-04-16T02:09:50;8.20;99.90
52495;DHT22;38405;53.212;5.660;2023-04-16T02:12:16;8.20;99.90
52495;DHT22;38405;53.212;5.660;2023-04-16T02:14:42;8.20;99.90
52495;DHT22;38405;53.212;5.660;2023-04-16T02:17:08;8.20;99.90
52495;DHT22;38405;53.212;5.660;2023-04-16T02:19:34;8.20;99.90
52495;DHT22;38405;53.212;5.660;2023-04-16T02:22:00;8.20;99.90
52495;DHT22;38405;53.212;5.660;2023-04-16T02:24:26;8.20;99.90
52495;DHT22;38405;53.212;5.660;2023-04-16T02:26:52;8.20;99.90
52495;DHT22;38405;53.212;5.660;2023-04-16T02:29:18;8.20;99.90
52495;DHT22;38405;53.212;5.660;2023-04-16T02:31:44;8.40;99.90
52495;DHT22;38405;53.212;5.660;2023-04-16T02:34:13;8.20;99.90
52495;DHT22;38405;53.212;5.660;2023-04-16T02:36:39;8.20;99.90
52495;DHT22;38405;53.212;5.660;2023-04-16T02:39:04;8.20;99.90
52495;DHT22;38405;53.212;5.660;2023-04-16T02:41:30;8.20;99.90
52495;DHT22;38405;53.212;5.660;2023-04-16T02:43:56;8.40;99.90
52495;DHT22;38405;53.212;5.660;2023-04-16T02:46:22;8.30;99.90
52495;DHT22;38405;53.212;5.660;2023-04-16T02:48:47;8.30;99.90
52495;DHT22;38405;53.212;5.660;2023-04-16T02:51:13;8.30;99.90
52495;DHT22;38405;53.212;5.660;2023-04-16T02:53:38;8.30;99.90
52495;DHT22;38405;53.212;5.660;2023-04-16T02:56:04;8.30;99.90
52495;DHT22;38405;53.212;5.660;2023-04-16T02:58:30;8.30;99.90
52495;DHT22;38405;53.212;5.660;2023-04-16T03:00:56;8.30;99.90
52495;DHT22;38405;53.212;5.660;2023-04-16T03:03:21;8.30;99.90
52495;DHT22;38405;53.212;5.660;2023-04-16T03:05:47;8.30;99.90
52495;DHT22;38405;53.212;5.660;2023-04-16T03:08:13;8.50;99.90
52495;DHT22;38405;53.212;5.660;2023-04-16T03:10:39;8.30;99.90
52495;DHT22;38405;53.212;5.660;2023-04-16T03:13:06;8.30;99.90
52495;DHT22;38405;53.212;5.660;2023-04-16T03:15:32;8.40;99.90
52495;DHT22;38405;53.212;5.660;2023-04-16T03:17:57;8.40;99.90
52495;DHT22;38405;53.212;5.660;2023-04-16T03:20:23;8.40;99.90
52495;DHT22;38405;53.212;5.660;2023-04-16T03:22:49;8.40;99.90
52495;DHT22;38405;53.212;5.660;2023-04-16T03:25:16;8.40;99.90
52495;DHT22;38405;53.212;5.660;2023-04-16T03:27:42;8.40;99.90
52495;DHT22;38405;53.212;5.660;2023-04-16T03:30:11;8.40;99.90
52495;DHT22;38405;53.212;5.660;2023-04-16T03:32:37;8.40;99.90
52495;DHT22;38405;53.212;5.660;2023-04-16T03:35:04;8.40;99.90
52495;DHT22;38405;53.212;5.660;2023-04-16T03:37:30;8.40;99.90
52495;DHT22;38405;53.212;5.660;2023-04-16T03:39:56;8.40;99.90
52495;DHT22;38405;53.212;5.660;2023-04-16T03:42:21;8.40;99.90
52495;DHT22;38405;53.212;5.660;2023-04-16T03:44:47;8.40;99.90
52495;DHT22;38405;53.212;5.660;2023-04-16T03:47:13;8.40;99.90
52495;DHT22;38405;53.212;5.660;2023-04-16T03:49:38;8.40;99.90
52495;DHT22;38405;53.212;5.660;2023-04-16T03:52:04;8.40;99.90
52495;DHT22;38405;53.212;5.660;2023-04-16T03:54:30;8.40;99.90
52495;DHT22;38405;53.212;5.660;2023-04-16T03:56:56;8.40;99.90
52495;DHT22;38405;53.212;5.660;2023-04-16T03:59:21;8.40;99.90
52495;DHT22;38405;53.212;5.660;2023-04-16T04:01:47;8.40;99.90
52495;DHT22;38405;53.212;5.660;2023-04-16T04:04:12;8.30;99.90
52495;DHT22;38405;53.212;5.660;2023-04-16T04:06:39;8.40;99.90
52495;DHT22;38405;53.212;5.660;2023-04-16T04:09:05;8.40;99.90
52495;DHT22;38405;53.212;5.660;2023-04-16T04:11:31;8.40;99.90
52495;DHT22;38405;53.212;5.660;2023-04-16T04:14:05;8.40;99.90
52495;DHT22;38405;53.212;5.660;2023-04-16T04:16:31;8.40;99.90
52495;DHT22;38405;53.212;5.660;2023-04-16T04:18:57;8.40;99.90
52495;DHT22;38405;53.212;5.660;2023-04-16T04:21:25;8.50;99.90
52495;DHT22;38405;53.212;5.660;2023-04-16T04:23:51;8.40;99.90
52495;DHT22;38405;53.212;5.660;2023-04-16T04:26:17;8.60;99.90
52495;DHT22;38405;53.212;5.660;2023-04-16T04:28:42;8.40;99.90
52495;DHT22;38405;53.212;5.660;2023-04-16T04:31:08;8.40;99.90
52495;DHT22;38405;53.212;5.660;2023-04-16T04:33:34;8.40;99.90
52495;DHT22;38405;53.212;5.660;2023-04-16T04:35:59;8.40;99.90
52495;DHT22;38405;53.212;5.660;2023-04-16T04:38:25;8.30;99.90
52495;DHT22;38405;53.212;5.660;2023-04-16T04:40:51;8.40;99.90
52495;DHT22;38405;53.212;5.660;2023-04-16T04:43:18;8.40;99.90
52495;DHT22;38405;53.212;5.660;2023-04-16T04:45:44;8.40;99.90
52495;DHT22;38405;53.212;5.660;2023-04-16T04:48:11;8.40;99.90
52495;DHT22;38405;53.212;5.660;2023-04-16T04:50:36;8.50;99.90
52495;DHT22;38405;53.212;5.660;2023-04-16T04:53:02;8.40;99.90
52495;DHT22;38405;53.212;5.660;2023-04-16T04:55:31;8.40;99.90
52495;DHT22;38405;53.212;5.660;2023-04-16T04:57:57;8.40;99.90
52495;DHT22;38405;53.212;5.660;2023-04-16T05:00:23;8.50;99.90
52495;DHT22;38405;53.212;5.660;2023-04-16T05:02:49;8.40;99.90
52495;DHT22;38405;53.212;5.660;2023-04-16T05:05:16;8.40;99.90
52495;DHT22;38405;53.212;5.660;2023-04-16T05:07:42;8.40;99.90
52495;DHT22;38405;53.212;5.660;2023-04-16T05:10:08;8.60;99.90
52495;DHT22;38405;53.212;5.660;2023-04-16T05:12:33;8.40;99.90
52495;DHT22;38405;53.212;5.660;2023-04-16T05:14:59;8.40;99.90
52495;DHT22;38405;53.212;5.660;2023-04-16T05:17:24;8.50;99.90
52495;DHT22;38405;53.212;5.660;2023-04-16T05:19:51;8.40;99.90
52495;DHT22;38405;53.212;5.660;2023-04-16T05:22:16;8.40;99.90
52495;DHT22;38405;53.212;5.660;2023-04-16T05:24:43;8.40;99.90
52495;DHT22;38405;53.212;5.660;2023-04-16T05:27:09;8.40;99.90
52495;DHT22;38405;53.212;5.660;2023-04-16T05:29:35;8.40;99.90
52495;DHT22;38405;53.212;5.660;2023-04-16T05:32:01;8.40;99.90
52495;DHT22;38405;53.212;5.660;2023-04-16T05:34:27;8.40;99.90
52495;DHT22;38405;53.212;5.660;2023-04-16T05:36:52;8.40;99.90
52495;DHT22;38405;53.212;5.660;2023-04-16T05:39:18;8.40;99.90
52495;DHT22;38405;53.212;5.660;2023-04-16T05:41:44;8.40;99.90
52495;DHT22;38405;53.212;5.660;2023-04-16T05:44:10;8.40;99.90
52495;DHT22;38405;53.212;5.660;2023-04-16T05:46:35;8.40;99.90
52495;DHT22;38405;53.212;5.660;2023-04-16T05:49:01;8.50;99.90
52495;DHT22;38405;53.212;5.660;2023-04-16T05:51:27;8.40;99.90
52495;DHT22;38405;53.212;5.660;2023-04-16T05:53:56;8.00;99.90
52495;DHT22;38405;53.212;5.660;2023-04-16T05:56:21;8.40;99.90
52495;DHT22;38405;53.212;5.660;2023-04-16T05:58:47;8.70;99.90
52495;DHT22;38405;53.212;5.660;2023-04-16T06:01:13;8.40;99.90
52495;DHT22;38405;53.212;5.660;2023-04-16T06:03:39;8.40;99.90
52495;DHT22;38405;53.212;5.660;2023-04-16T06:06:04;8.40;99.90
52495;DHT22;38405;53.212;5.660;2023-04-16T06:08:30;8.40;99.90
52495;DHT22;38405;53.212;5.660;2023-04-16T06:10:56;8.50;99.90
52495;DHT22;38405;53.212;5.660;2023-04-16T06:13:21;8.50;99.90
52495;DHT22;38405;53.212;5.660;2023-04-16T06:15:47;8.50;99.90
52495;DHT22;38405;53.212;5.660;2023-04-16T06:18:12;8.50;99.90
52495;DHT22;38405;53.212;5.660;2023-04-16T06:20:38;8.50;99.90
52495;DHT22;38405;53.212;5.660;2023-04-16T06:23:04;8.50;99.90
52495;DHT22;38405;53.212;5.660;2023-04-16T06:25:30;8.50;99.90
52495;DHT22;38405;53.212;5.660;2023-04-16T06:27:55;8.60;99.90
52495;DHT22;38405;53.212;5.660;2023-04-16T06:30:21;8.60;99.90
52495;DHT22;38405;53.212;5.660;2023-04-16T06:32:47;8.60;99.90
52495;DHT22;38405;53.212;5.660;2023-04-16T06:35:13;8.60;99.90
52495;DHT22;38405;53.212;5.660;2023-04-16T06:37:39;8.60;99.90
52495;DHT22;38405;53.212;5.660;2023-04-16T06:40:06;8.60;99.90
52495;DHT22;38405;53.212;5.660;2023-04-16T06:42:31;8.60;99.90
52495;DHT22;38405;53.212;5.660;2023-04-16T06:44:57;8.60;99.90
52495;DHT22;38405;53.212;5.660;2023-04-16T06:47:23;8.60;99.90
52495;DHT22;38405;53.212;5.660;2023-04-16T06:49:48;8.60;99.90
52495;DHT22;38405;53.212;5.660;2023-04-16T06:52:14;8.60;99.90
52495;DHT22;38405;53.212;5.660;2023-04-16T06:54:40;8.60;99.90
52495;DHT22;38405;53.212;5.660;2023-04-16T06:57:05;8.60;99.90
52495;DHT22;38405;53.212;5.660;2023-04-16T06:59:31;8.70;99.90
52495;DHT22;38405;53.212;5.660;2023-04-16T07:01:56;8.70;99.90
52495;DHT22;38405;53.212;5.660;2023-04-16T07:04:22;8.60;99.90
52495;DHT22;38405;53.212;5.660;2023-04-16T07:06:48;8.70;99.90
52495;DHT22;38405;53.212;5.660;2023-04-16T07:09:13;8.70;99.90
52495;DHT22;38405;53.212;5.660;2023-04-16T07:11:40;8.70;99.90
52495;DHT22;38405;53.212;5.660;2023-04-16T07:14:06;8.80;99.90
52495;DHT22;38405;53.212;5.660;2023-04-16T07:16:31;8.80;99.90
52495;DHT22;38405;53.212;5.660;2023-04-16T07:18:57;8.80;99.90
52495;DHT22;38405;53.212;5.660;2023-04-16T07:21:23;8.80;99.90
52495;DHT22;38405;53.212;5.660;2023-04-16T07:23:48;8.80;99.90
52495;DHT22;38405;53.212;5.660;2023-04-16T07:26:14;8.90;99.90
52495;DHT22;38405;53.212;5.660;2023-04-16T07:28:40;8.80;99.90
52495;DHT22;38405;53.212;5.660;2023-04-16T07:31:05;8.90;99.90
52495;DHT22;38405;53.212;5.660;2023-04-16T07:33:31;8.90;99.90
52495;DHT22;38405;53.212;5.660;2023-04-16T07:35:57;8.90;99.90
52495;DHT22;38405;53.212;5.660;2023-04-16T07:38:22;8.80;99.90
52495;DHT22;38405;53.212;5.660;2023-04-16T07:40:48;8.90;99.90
52495;DHT22;38405;53.212;5.660;2023-04-16T07:43:13;8.90;99.90
52495;DHT22;38405;53.212;5.660;2023-04-16T07:45:41;8.90;99.90
52495;DHT22;38405;53.212;5.660;2023-04-16T07:48:06;9.00;99.90
52495;DHT22;38405;53.212;5.660;2023-04-16T07:50:32;9.10;99.90
52495;DHT22;38405;53.212;5.660;2023-04-16T07:52:58;9.00;99.90
52495;DHT22;38405;53.212;5.660;2023-04-16T07:55:23;8.90;99.90
52495;DHT22;38405;53.212;5.660;2023-04-16T07:57:49;8.90;99.90
52495;DHT22;38405;53.212;5.660;2023-04-16T08:00:18;9.00;99.90
52495;DHT22;38405;53.212;5.660;2023-04-16T08:02:43;9.00;99.90
52495;DHT22;38405;53.212;5.660;2023-04-16T08:05:09;9.00;99.90
52495;DHT22;38405;53.212;5.660;2023-04-16T08:07:36;9.10;99.90
52495;DHT22;38405;53.212;5.660;2023-04-16T08:10:02;9.20;99.90
52495;DHT22;38405;53.212;5.660;2023-04-16T08:12:28;9.20;99.90
52495;DHT22;38405;53.212;5.660;2023-04-16T08:14:54;9.10;99.90
52495;DHT22;38405;53.212;5.660;2023-04-16T08:17:19;9.10;99.90
52495;DHT22;38405;53.212;5.660;2023-04-16T08:19:45;9.10;99.90
52495;DHT22;38405;53.212;5.660;2023-04-16T08:22:11;9.20;99.90
52495;DHT22;38405;53.212;5.660;2023-04-16T08:24:40;9.20;99.90
52495;DHT22;38405;53.212;5.660;2023-04-16T08:27:05;9.20;99.90
52495;DHT22;38405;53.212;5.660;2023-04-16T08:29:31;9.20;99.90
52495;DHT22;38405;53.212;5.660;2023-04-16T08:31:58;9.30;99.90
52495;DHT22;38405;53.212;5.660;2023-04-16T08:34:24;9.30;99.90
52495;DHT22;38405;53.212;5.660;2023-04-16T08:36:49;9.30;99.90
52495;DHT22;38405;53.212;5.660;2023-04-16T08:39:15;9.40;99.90
52495;DHT22;38405;53.212;5.660;2023-04-16T08:41:44;9.40;99.90
52495;DHT22;38405;53.212;5.660;2023-04-16T08:44:17;9.50;99.90
52495;DHT22;38405;53.212;5.660;2023-04-16T08:46:45;9.60;99.90
52495;DHT22;38405;53.212;5.660;2023-04-16T08:49:15;9.60;99.90
52495;DHT22;38405;53.212;5.660;2023-04-16T08:51:45;9.70;99.90
52495;DHT22;38405;53.212;5.660;2023-04-16T08:55:05;9.80;99.90
52495;DHT22;38405;53.212;5.660;2023-04-16T08:57:06;9.80;99.90
52495;DHT22;38405;53.212;5.660;2023-04-16T08:59:34;9.80;99.90
52495;DHT22;38405;53.212;5.660;2023-04-16T09:02:01;9.90;99.90
52495;DHT22;38405;53.212;5.660;2023-04-16T09:04:27;9.90;99.90
52495;DHT22;38405;53.212;5.660;2023-04-16T09:06:54;10.20;99.90
52495;DHT22;38405;53.212;5.660;2023-04-16T09:09:22;9.90;99.90
52495;DHT22;38405;53.212;5.660;2023-04-16T09:11:51;9.90;99.90
52495;DHT22;38405;53.212;5.660;2023-04-16T09:14:17;10.00;99.90
52495;DHT22;38405;53.212;5.660;2023-04-16T09:16:47;9.90;99.90
52495;DHT22;38405;53.212;5.660;2023-04-16T09:19:13;10.00;99.90
52495;DHT22;38405;53.212;5.660;2023-04-16T09:21:41;9.90;99.90
52495;DHT22;38405;53.212;5.660;2023-04-16T09:24:08;10.00;99.90
52495;DHT22;38405;53.212;5.660;2023-04-16T09:26:35;10.10;99.90
52495;DHT22;38405;53.212;5.660;2023-04-16T09:29:00;10.20;99.90
52495;DHT22;38405;53.212;5.660;2023-04-16T09:31:26;10.20;99.90
52495;DHT22;38405;53.212;5.660;2023-04-16T09:34:06;10.30;99.90
52495;DHT22;38405;53.212;5.660;2023-04-16T09:36:33;10.40;99.90
52495;DHT22;38405;53.212;5.660;2023-04-16T09:39:00;10.50;99.90
52495;DHT22;38405;53.212;5.660;2023-04-16T09:41:30;10.60;99.90
52495;DHT22;38405;53.212;5.660;2023-04-16T09:43:57;10.60;99.90
52495;DHT22;38405;53.212;5.660;2023-04-16T09:46:28;10.50;99.90
52495;DHT22;38405;53.212;5.660;2023-04-16T09:48:54;10.70;99.90
52495;DHT22;38405;53.212;5.660;2023-04-16T09:51:19;10.70;99.90
52495;DHT22;38405;53.212;5.660;2023-04-16T09:53:45;10.70;99.90
52495;DHT22;38405;53.212;5.660;2023-04-16T09:56:11;10.70;99.90
52495;DHT22;38405;53.212;5.660;2023-04-16T09:58:37;10.70;99.90
52495;DHT22;38405;53.212;5.660;2023-04-16T10:01:08;10.80;99.90
52495;DHT22;38405;53.212;5.660;2023-04-16T10:03:36;10.90;99.90
52495;DHT22;38405;53.212;5.660;2023-04-16T10:06:16;11.00;99.90
52495;DHT22;38405;53.212;5.660;2023-04-16T10:08:48;11.10;99.90
52495;DHT22;38405;53.212;5.660;2023-04-16T10:11:14;11.00;99.90
52495;DHT22;38405;53.212;5.660;2023-04-16T10:13:40;10.90;99.90
52495;DHT22;38405;53.212;5.660;2023-04-16T10:16:07;10.90;99.90
52495;DHT22;38405;53.212;5.660;2023-04-16T10:18:38;10.80;99.90
52495;DHT22;38405;53.212;5.660;2023-04-16T10:21:04;10.70;99.90
52495;DHT22;38405;53.212;5.660;2023-04-16T10:23:31;10.60;99.90
52495;DHT22;38405;53.212;5.660;2023-04-16T10:25:58;10.70;99.90
52495;DHT22;38405;53.212;5.660;2023-04-16T10:28:24;10.80;99.90
52495;DHT22;38405;53.212;5.660;2023-04-16T10:30:52;10.90;99.90
52495;DHT22;38405;53.212;5.660;2023-04-16T10:33:21;10.90;99.90
52495;DHT22;38405;53.212;5.660;2023-04-16T10:35:47;11.00;99.90
52495;DHT22;38405;53.212;5.660;2023-04-16T10:38:24;11.00;99.90
52495;DHT22;38405;53.212;5.660;2023-04-16T10:41:03;10.90;99.90
52495;DHT22;38405;53.212;5.660;2023-04-16T10:43:33;10.90;99.90
52495;DHT22;38405;53.212;5.660;2023-04-16T10:48:53;10.80;99.90
52495;DHT22;38405;53.212;5.660;2023-04-16T10:53:49;10.80;99.90
52495;DHT22;38405;53.212;5.660;2023-04-16T10:56:22;10.90;99.90
52495;DHT22;38405;53.212;5.660;2023-04-16T10:58:48;11.00;99.90
52495;DHT22;38405;53.212;5.660;2023-04-16T11:01:13;11.10;99.90
52495;DHT22;38405;53.212;5.660;2023-04-16T11:03:45;11.10;99.90
52495;DHT22;38405;53.212;5.660;2023-04-16T11:06:13;11.30;99.90
52495;DHT22;38405;53.212;5.660;2023-04-16T11:08:41;11.20;99.90
52495;DHT22;38405;53.212;5.660;2023-04-16T11:11:08;11.10;99.90
52495;DHT22;38405;53.212;5.660;2023-04-16T11:13:35;11.10;99.90
52495;DHT22;38405;53.212;5.660;2023-04-16T11:16:02;11.10;99.90
52495;DHT22;38405;53.212;5.660;2023-04-16T11:18:28;11.20;99.90
52495;DHT22;38405;53.212;5.660;2023-04-16T11:20:53;11.20;99.90
52495;DHT22;38405;53.212;5.660;2023-04-16T11:23:19;11.20;99.90
52495;DHT22;38405;53.212;5.660;2023-04-16T11:25:45;11.30;99.90
52495;DHT22;38405;53.212;5.660;2023-04-16T11:28:11;11.40;99.90
52495;DHT22;38405;53.212;5.660;2023-04-16T11:30:38;11.30;99.90
52495;DHT22;38405;53.212;5.660;2023-04-16T11:33:08;11.30;99.90
52495;DHT22;38405;53.212;5.660;2023-04-16T11:35:36;11.30;99.90
52495;DHT22;38405;53.212;5.660;2023-04-16T11:38:04;11.30;99.90
52495;DHT22;38405;53.212;5.660;2023-04-16T11:40:31;11.20;99.90
52495;DHT22;38405;53.212;5.660;2023-04-16T11:43:14;11.20;99.90
52495;DHT22;38405;53.212;5.660;2023-04-16T11:45:57;11.30;99.90
52495;DHT22;38405;53.212;5.660;2023-04-16T11:48:23;11.40;99.90
52495;DHT22;38405;53.212;5.660;2023-04-16T11:50:58;11.40;99.90
52495;DHT22;38405;53.212;5.660;2023-04-16T11:53:24;11.40;99.90
52495;DHT22;38405;53.212;5.660;2023-04-16T11:55:50;11.30;99.90
52495;DHT22;38405;53.212;5.660;2023-04-16T11:58:15;11.20;99.90
52495;DHT22;38405;53.212;5.660;2023-04-16T12:00:41;11.10;99.90
52495;DHT22;38405;53.212;5.660;2023-04-16T12:03:07;11.00;99.90
52495;DHT22;38405;53.212;5.660;2023-04-16T12:05:36;11.10;99.90
52495;DHT22;38405;53.212;5.660;2023-04-16T12:08:11;11.10;99.90
52495;DHT22;38405;53.212;5.660;2023-04-16T12:10:55;11.10;99.90
52495;DHT22;38405;53.212;5.660;2023-04-16T12:13:21;11.30;99.90
52495;DHT22;38405;53.212;5.660;2023-04-16T12:15:52;11.30;99.90
52495;DHT22;38405;53.212;5.660;2023-04-16T12:18:20;11.40;99.90
52495;DHT22;38405;53.212;5.660;2023-04-16T12:20:48;11.30;99.90
52495;DHT22;38405;53.212;5.660;2023-04-16T12:23:23;11.30;99.90
52495;DHT22;38405;53.212;5.660;2023-04-16T12:25:49;11.50;99.90
52495;DHT22;38405;53.212;5.660;2023-04-16T12:28:36;11.60;99.90
52495;DHT22;38405;53.212;5.660;2023-04-16T12:31:04;11.60;99.90
52495;DHT22;38405;53.212;5.660;2023-04-16T12:33:30;11.80;99.90
52495;DHT22;38405;53.212;5.660;2023-04-16T12:35:56;11.80;99.90
52495;DHT22;38405;53.212;5.660;2023-04-16T12:38:21;11.70;99.90
52495;DHT22;38405;53.212;5.660;2023-04-16T12:40:47;11.70;99.90
52495;DHT22;38405;53.212;5.660;2023-04-16T12:43:13;11.70;99.90
52495;DHT22;38405;53.212;5.660;2023-04-16T12:45:39;11.70;99.90
52495;DHT22;38405;53.212;5.660;2023-04-16T12:48:05;11.70;99.90
52495;DHT22;38405;53.212;5.660;2023-04-16T12:50:31;11.70;99.90
52495;DHT22;38405;53.212;5.660;2023-04-16T12:52:57;11.50;99.90
52495;DHT22;38405;53.212;5.660;2023-04-16T12:55:23;11.50;99.90
52495;DHT22;38405;53.212;5.660;2023-04-16T12:57:50;11.60;99.90
52495;DHT22;38405;53.212;5.660;2023-04-16T13:00:17;11.80;99.90
52495;DHT22;38405;53.212;5.660;2023-04-16T13:02:44;11.90;99.90
52495;DHT22;38405;53.212;5.660;2023-04-16T13:05:10;12.00;99.90
52495;DHT22;38405;53.212;5.660;2023-04-16T13:07:36;11.80;99.90
52495;DHT22;38405;53.212;5.660;2023-04-16T13:10:01;12.00;99.90
52495;DHT22;38405;53.212;5.660;2023-04-16T13:12:27;11.70;99.90
52495;DHT22;38405;53.212;5.660;2023-04-16T13:14:54;11.70;99.90
52495;DHT22;38405;53.212;5.660;2023-04-16T13:17:20;11.80;99.90
52495;DHT22;38405;53.212;5.660;2023-04-16T13:19:45;11.70;99.90
52495;DHT22;38405;53.212;5.660;2023-04-16T13:22:11;11.50;99.90
52495;DHT22;38405;53.212;5.660;2023-04-16T13:24:37;11.40;99.90
52495;DHT22;38405;53.212;5.660;2023-04-16T13:27:03;11.50;99.90
52495;DHT22;38405;53.212;5.660;2023-04-16T13:29:29;11.50;99.90
52495;DHT22;38405;53.212;5.660;2023-04-16T13:31:55;11.60;99.90
52495;DHT22;38405;53.212;5.660;2023-04-16T13:34:21;11.70;99.90
52495;DHT22;38405;53.212;5.660;2023-04-16T13:36:47;11.90;99.90
52495;DHT22;38405;53.212;5.660;2023-04-16T13:39:13;11.90;99.90
52495;DHT22;38405;53.212;5.660;2023-04-16T13:41:40;11.90;99.90
52495;DHT22;38405;53.212;5.660;2023-04-16T13:44:06;12.10;99.90
52495;DHT22;38405;53.212;5.660;2023-04-16T13:46:32;12.10;99.90
52495;DHT22;38405;53.212;5.660;2023-04-16T13:48:58;12.00;99.90
52495;DHT22;38405;53.212;5.660;2023-04-16T13:51:24;12.10;99.90
52495;DHT22;38405;53.212;5.660;2023-04-16T13:53:49;12.30;99.90
52495;DHT22;38405;53.212;5.660;2023-04-16T13:56:15;12.30;99.90
52495;DHT22;38405;53.212;5.660;2023-04-16T13:58:41;12.30;99.90
52495;DHT22;38405;53.212;5.660;2023-04-16T14:01:07;12.30;99.90
52495;DHT22;38405;53.212;5.660;2023-04-16T14:03:33;12.20;99.90
52495;DHT22;38405;53.212;5.660;2023-04-16T14:06:03;12.10;99.90
52495;DHT22;38405;53.212;5.660;2023-04-16T14:08:29;12.10;99.90
52495;DHT22;38405;53.212;5.660;2023-04-16T14:10:56;12.00;99.90
52495;DHT22;38405;53.212;5.660;2023-04-16T14:13:22;12.10;99.90
52495;DHT22;38405;53.212;5.660;2023-04-16T14:15:48;12.10;99.90
52495;DHT22;38405;53.212;5.660;2023-04-16T14:18:14;11.90;99.90
52495;DHT22;38405;53.212;5.660;2023-04-16T14:20:42;11.70;99.90
52495;DHT22;38405;53.212;5.660;2023-04-16T14:23:08;11.70;99.90
52495;DHT22;38405;53.212;5.660;2023-04-16T14:25:33;11.70;99.90
52495;DHT22;38405;53.212;5.660;2023-04-16T14:27:59;11.70;99.90
52495;DHT22;38405;53.212;5.660;2023-04-16T14:30:25;11.60;99.90
52495;DHT22;38405;53.212;5.660;2023-04-16T14:32:51;11.60;99.90
52495;DHT22;38405;53.212;5.660;2023-04-16T14:35:17;11.70;99.90
52495;DHT22;38405;53.212;5.660;2023-04-16T14:37:42;11.70;99.90
52495;DHT22;38405;53.212;5.660;2023-04-16T14:40:08;11.60;99.90
52495;DHT22;38405;53.212;5.660;2023-04-16T14:42:35;11.40;99.90
52495;DHT22;38405;53.212;5.660;2023-04-16T14:45:01;11.30;99.90
52495;DHT22;38405;53.212;5.660;2023-04-16T14:47:27;11.30;99.90
52495;DHT22;38405;53.212;5.660;2023-04-16T14:49:53;11.40;99.90
52495;DHT22;38405;53.212;5.660;2023-04-16T14:52:19;11.40;99.90
52495;DHT22;38405;53.212;5.660;2023-04-16T14:54:45;11.50;99.90
52495;DHT22;38405;53.212;5.660;2023-04-16T14:57:12;11.50;99.90
52495;DHT22;38405;53.212;5.660;2023-04-16T14:59:38;11.50;99.90
52495;DHT22;38405;53.212;5.660;2023-04-16T15:02:04;11.60;99.90
52495;DHT22;38405;53.212;5.660;2023-04-16T15:04:29;11.40;99.90
52495;DHT22;38405;53.212;5.660;2023-04-16T15:06:55;11.40;99.90
52495;DHT22;38405;53.212;5.660;2023-04-16T15:09:26;11.50;99.90
52495;DHT22;38405;53.212;5.660;2023-04-16T15:11:52;11.50;99.90
52495;DHT22;38405;53.212;5.660;2023-04-16T15:14:18;11.60;99.90
52495;DHT22;38405;53.212;5.660;2023-04-16T15:16:45;11.60;99.90
52495;DHT22;38405;53.212;5.660;2023-04-16T15:19:14;11.60;99.90
52495;DHT22;38405;53.212;5.660;2023-04-16T15:21:39;11.50;99.90
52495;DHT22;38405;53.212;5.660;2023-04-16T15:24:05;11.30;99.90
52495;DHT22;38405;53.212;5.660;2023-04-16T15:26:31;11.20;99.90
52495;DHT22;38405;53.212;5.660;2023-04-16T15:28:57;11.10;99.90
52495;DHT22;38405;53.212;5.660;2023-04-16T15:31:22;11.00;99.90
52495;DHT22;38405;53.212;5.660;2023-04-16T15:33:48;11.00;99.90
52495;DHT22;38405;53.212;5.660;2023-04-16T15:36:14;11.00;99.90
52495;DHT22;38405;53.212;5.660;2023-04-16T15:38:40;11.00;99.90
52495;DHT22;38405;53.212;5.660;2023-04-16T15:41:08;11.00;99.90